Time;durP1;ratioP1;P1;durP2;ratioP2;P2;SDS_P1;SDS_P2;PMS_P1;PMS_P2;Temp;Humidity;BMP_temperature;BMP_pressure;BME280_temperature;BME280_humidity;BME280_pressure;Samples;Min_cycle;Max_cycle;Signal;HPM_P1;HPM_P2
2023/04/28 00:00:07;;;;;;;5.47;2.85;;;5.00;84.50;;;;;;5067017;28;20600;-44
2023/04/28 00:02:34;;;;;;;4.72;2.70;;;5.00;84.50;;;;;;5056692;28;20132;-44
2023/04/28 00:05:00;;;;;;;7.13;3.03;;;5.00;84.60;;;;;;5053137;28;20057;-44
2023/04/28 00:07:27;;;;;;;4.45;2.83;;;5.00;84.90;;;;;;5054868;28;20071;-45
2023/04/28 00:09:53;;;;;;;5.93;3.28;;;5.00;85.10;;;;;;5065677;28;20374;-45
2023/04/28 00:12:21;;;;;;;4.38;2.55;;;5.10;85.10;;;;;;5065718;28;20048;-44
2023/04/28 00:14:47;;;;;;;5.25;3.30;;;5.10;85.10;;;;;;5037340;28;20335;-44
2023/04/28 00:17:14;;;;;;;4.85;3.20;;;5.10;85.30;;;;;;5069326;28;20025;-44
2023/04/28 00:19:41;;;;;;;7.28;3.53;;;5.10;85.40;;;;;;5074861;28;20032;-46
2023/04/28 00:22:07;;;;;;;4.38;2.88;;;5.20;85.40;;;;;;5063049;28;20037;-45
2023/04/28 00:24:37;;;;;;;4.38;2.80;;;5.10;85.30;;;;;;5037151;28;20025;-43
2023/04/28 00:27:04;;;;;;;5.10;3.10;;;5.10;85.10;;;;;;5067325;28;20035;-47
2023/04/28 00:29:32;;;;;;;4.63;2.70;;;5.10;85.20;;;;;;5061402;28;20033;-49
2023/04/28 00:31:59;;;;;;;6.53;3.83;;;5.10;85.20;;;;;;5068271;28;20388;-44
2023/04/28 00:34:36;;;;;;;5.57;3.38;;;5.10;85.50;;;;;;5055521;28;20428;-44
2023/04/28 00:37:04;;;;;;;5.38;3.25;;;5.10;85.40;;;;;;5038355;28;20083;-46
2023/04/28 00:39:32;;;;;;;6.63;4.25;;;5.10;85.30;;;;;;5073492;28;20024;-46
2023/04/28 00:42:01;;;;;;;6.55;3.65;;;5.10;85.50;;;;;;5073325;28;20120;-46
2023/04/28 00:44:28;;;;;;;10.83;4.67;;;5.10;85.60;;;;;;5062939;28;20037;-44
2023/04/28 00:46:56;;;;;;;7.60;3.58;;;5.10;85.60;;;;;;5057867;28;20029;-44
2023/04/28 00:49:26;;;;;;;9.18;4.80;;;5.10;85.60;;;;;;5073301;28;20043;-44
2023/04/28 00:51:54;;;;;;;7.15;4.10;;;5.10;85.60;;;;;;5067523;28;20044;-43
2023/04/28 00:54:23;;;;;;;9.40;4.07;;;5.10;85.70;;;;;;5048474;28;20463;-43
2023/04/28 00:56:49;;;;;;;7.68;4.70;;;5.00;85.60;;;;;;5058144;28;20058;-44
2023/04/28 00:59:16;;;;;;;7.20;4.43;;;5.10;85.60;;;;;;5071070;28;20028;-44
2023/04/28 01:01:43;;;;;;;11.52;4.75;;;5.10;85.50;;;;;;5059177;28;20024;-46
2023/04/28 01:04:10;;;;;;;7.55;4.78;;;5.10;85.60;;;;;;5068516;28;20095;-46
2023/04/28 01:06:50;;;;;;;8.20;5.28;;;5.10;85.70;;;;;;5088192;28;20791;-43
2023/04/28 01:09:18;;;;;;;11.48;6.00;;;5.20;85.60;;;;;;5088871;28;20102;-43
2023/04/28 01:11:47;;;;;;;9.68;6.82;;;5.10;85.60;;;;;;5089013;28;20039;-44
2023/04/28 01:14:17;;;;;;;;;;;5.10;85.70;;;;;;5051346;28;20033;-43
2023/04/28 01:16:44;;;;;;;9.07;5.75;;;5.10;85.70;;;;;;5068619;28;19909;-43
2023/04/28 01:19:21;;;;;;;8.27;6.03;;;5.10;85.80;;;;;;5068977;28;20029;-45
2023/04/28 01:21:49;;;;;;;10.50;7.15;;;5.10;85.70;;;;;;5068264;28;20040;-46
2023/04/28 01:24:17;;;;;;;9.95;6.85;;;5.10;85.70;;;;;;5069547;28;20252;-44
2023/04/28 01:26:45;;;;;;;10.68;6.50;;;5.10;85.80;;;;;;5088203;28;20028;-45
2023/04/28 01:29:12;;;;;;;11.30;7.40;;;5.10;85.90;;;;;;5076657;28;20052;-44
2023/04/28 01:31:40;;;;;;;10.60;6.78;;;5.20;85.80;;;;;;5075703;28;20083;-44
2023/04/28 01:34:07;;;;;;;8.27;6.20;;;5.20;85.70;;;;;;5085247;28;20043;-43
2023/04/28 01:36:34;;;;;;;10.65;6.32;;;5.20;85.80;;;;;;5089953;28;20028;-45
2023/04/28 01:39:00;;;;;;;10.70;7.05;;;5.20;85.60;;;;;;5074446;28;20052;-45
2023/04/28 01:41:29;;;;;;;11.02;6.65;;;5.20;85.50;;;;;;5068436;28;20191;-44
2023/04/28 01:43:56;;;;;;;8.82;5.72;;;5.20;85.70;;;;;;5049676;28;20044;-44
2023/04/28 01:46:25;;;;;;;8.45;6.70;;;5.20;85.70;;;;;;5073534;28;20029;-46
2023/04/28 01:48:53;;;;;;;10.38;6.10;;;5.30;85.90;;;;;;5088404;28;20032;-44
2023/04/28 01:51:20;;;;;;;10.88;6.85;;;5.30;85.70;;;;;;5087829;28;20036;-44
2023/04/28 01:53:45;;;;;;;9.60;7.10;;;5.30;86.10;;;;;;5064543;28;20061;-43
2023/04/28 01:56:12;;;;;;;9.50;7.65;;;5.30;86.10;;;;;;5066531;28;20070;-43
2023/04/28 01:58:38;;;;;;;10.23;7.07;;;5.30;86.20;;;;;;5083665;28;20032;-43
2023/04/28 02:01:03;;;;;;;9.25;6.30;;;5.30;86.20;;;;;;5075849;28;20032;-44
2023/04/28 02:03:31;;;;;;;11.88;6.50;;;5.30;86.30;;;;;;5087484;28;20342;-45
2023/04/28 02:05:57;;;;;;;11.80;6.80;;;5.30;86.50;;;;;;5084039;28;20438;-43
2023/04/28 02:08:24;;;;;;;12.20;8.05;;;5.30;86.70;;;;;;5069173;28;20078;-44
2023/04/28 02:10:53;;;;;;;10.68;7.60;;;5.30;87.10;;;;;;5069332;28;20049;-43
2023/04/28 02:13:20;;;;;;;11.45;8.23;;;5.30;87.20;;;;;;5075560;28;20079;-44
2023/04/28 02:15:48;;;;;;;10.80;8.48;;;5.30;87.20;;;;;;5069673;28;20036;-43
2023/04/28 02:18:14;;;;;;;10.82;8.18;;;5.30;87.30;;;;;;5074301;28;20036;-43
2023/04/28 02:20:41;;;;;;;11.65;9.05;;;5.30;87.20;;;;;;5067045;28;20413;-43
2023/04/28 02:23:12;;;;;;;16.35;9.40;;;5.30;87.50;;;;;;5074584;28;20044;-45
2023/04/28 02:25:40;;;;;;;13.88;9.55;;;5.30;87.60;;;;;;5045889;28;20029;-42
2023/04/28 02:28:10;;;;;;;11.68;8.02;;;5.30;87.60;;;;;;5051322;28;20070;-43
2023/04/28 02:30:39;;;;;;;12.15;9.98;;;5.30;87.70;;;;;;5068454;28;20045;-42
2023/04/28 02:33:07;;;;;;;14.38;8.45;;;5.30;87.90;;;;;;5074116;28;20028;-43
2023/04/28 02:35:35;;;;;;;18.33;9.57;;;5.30;87.90;;;;;;5068816;28;20480;-48
2023/04/28 02:38:03;;;;;;;14.18;9.75;;;5.30;87.80;;;;;;5072706;28;20367;-45
2023/04/28 02:40:32;;;;;;;14.90;10.73;;;5.30;87.90;;;;;;5059851;28;20569;-42
2023/04/28 02:43:01;;;;;;;12.30;9.88;;;5.30;87.90;;;;;;5035694;28;20497;-44
2023/04/28 02:45:29;;;;;;;15.50;11.75;;;5.30;88.20;;;;;;5039400;28;20068;-45
2023/04/28 02:48:01;;;;;;;19.25;12.02;;;5.30;88.10;;;;;;5062394;28;20024;-48
2023/04/28 02:50:28;;;;;;;16.63;11.55;;;5.30;88.20;;;;;;5049475;28;20052;-42
2023/04/28 02:52:54;;;;;;;14.20;11.73;;;5.40;88.40;;;;;;5047886;28;20029;-48
2023/04/28 02:55:24;;;;;;;18.42;11.98;;;5.40;88.30;;;;;;5054242;28;20036;-45
2023/04/28 02:57:52;;;;;;;16.63;10.25;;;5.40;88.00;;;;;;5053861;28;20044;-45
2023/04/28 03:00:18;;;;;;;16.85;11.43;;;5.40;87.80;;;;;;5051979;28;20036;-43
2023/04/28 03:02:46;;;;;;;14.90;11.57;;;5.30;87.60;;;;;;5038623;28;20063;-44
2023/04/28 03:05:12;;;;;;;15.00;10.05;;;5.40;87.50;;;;;;5034083;28;20046;-43
2023/04/28 03:07:42;;;;;;;14.52;10.70;;;5.40;87.60;;;;;;5039882;28;20030;-43
2023/04/28 03:10:08;;;;;;;17.25;10.10;;;5.40;87.40;;;;;;5048239;28;20029;-45
2023/04/28 03:12:35;;;;;;;15.43;10.15;;;5.40;87.30;;;;;;5042142;28;20033;-44
2023/04/28 03:15:03;;;;;;;14.57;10.77;;;5.40;87.10;;;;;;5034944;28;20021;-42
2023/04/28 03:17:30;;;;;;;13.70;11.27;;;5.30;87.10;;;;;;5070005;28;20029;-45
2023/04/28 03:19:59;;;;;;;14.77;10.52;;;5.40;87.10;;;;;;5046824;28;20283;-48
2023/04/28 03:22:28;;;;;;;14.00;9.82;;;5.30;87.00;;;;;;5047649;28;20032;-42
2023/04/28 03:24:57;;;;;;;12.98;9.60;;;5.40;87.00;;;;;;5051885;28;20124;-42
2023/04/28 03:27:23;;;;;;;14.70;10.20;;;5.30;87.20;;;;;;5046324;28;20026;-44
2023/04/28 03:29:50;;;;;;;17.55;10.27;;;5.40;87.30;;;;;;5042872;28;20359;-42
2023/04/28 03:32:17;;;;;;;15.45;10.52;;;5.40;87.30;;;;;;5052860;28;20112;-43
2023/04/28 03:34:45;;;;;;;18.85;10.38;;;5.40;87.40;;;;;;5057103;28;20033;-44
2023/04/28 03:37:14;;;;;;;15.15;11.50;;;5.40;87.40;;;;;;5057563;28;20091;-42
2023/04/28 03:39:42;;;;;;;16.35;11.02;;;5.40;87.30;;;;;;5052506;28;20029;-42
2023/04/28 03:42:10;;;;;;;16.48;12.35;;;5.40;87.30;;;;;;5034260;28;20032;-42
2023/04/28 03:44:39;;;;;;;20.65;10.73;;;5.40;87.30;;;;;;5047952;28;20373;-45
2023/04/28 03:47:07;;;;;;;20.35;13.45;;;5.50;87.40;;;;;;5051701;28;20424;-42
2023/04/28 03:49:35;;;;;;;19.40;11.82;;;5.60;87.60;;;;;;5034270;28;20037;-43
2023/04/28 03:52:03;;;;;;;22.77;14.52;;;5.60;87.60;;;;;;5034031;28;20022;-43
2023/04/28 03:54:30;;;;;;;18.42;13.32;;;5.70;87.40;;;;;;5033798;28;20025;-43
2023/04/28 03:56:59;;;;;;;21.08;13.82;;;5.70;87.30;;;;;;5053784;28;20063;-45
2023/04/28 03:59:26;;;;;;;15.40;12.00;;;5.80;87.00;;;;;;5049807;28;20386;-47
2023/04/28 04:01:54;;;;;;;19.23;15.13;;;5.80;86.80;;;;;;5045368;28;20055;-44
2023/04/28 04:04:20;;;;;;;21.45;15.10;;;5.90;86.40;;;;;;5047032;28;20056;-43
2023/04/28 04:06:46;;;;;;;18.98;15.38;;;5.90;86.00;;;;;;5049492;28;20029;-44
2023/04/28 04:09:14;;;;;;;26.35;15.82;;;6.00;85.90;;;;;;5052530;28;20024;-44
2023/04/28 04:11:40;;;;;;;21.55;14.48;;;6.10;85.80;;;;;;5050910;28;20033;-42
2023/04/28 04:14:07;;;;;;;20.13;14.63;;;6.10;85.90;;;;;;5050801;28;20021;-44
2023/04/28 04:16:35;;;;;;;18.52;14.23;;;6.20;85.80;;;;;;5053814;28;20094;-44
2023/04/28 04:19:03;;;;;;;17.90;14.23;;;6.20;85.80;;;;;;5045489;28;20033;-44
2023/04/28 04:21:30;;;;;;;20.60;14.38;;;6.30;85.40;;;;;;5062008;28;20039;-43
2023/04/28 04:23:56;;;;;;;20.45;13.75;;;6.40;85.30;;;;;;5059071;28;20037;-43
2023/04/28 04:26:24;;;;;;;21.25;14.98;;;6.40;85.10;;;;;;5046511;28;20363;-43
2023/04/28 04:28:52;;;;;;;20.73;13.15;;;6.40;85.20;;;;;;5048456;28;20021;-43
2023/04/28 04:31:21;;;;;;;18.80;12.98;;;6.40;85.10;;;;;;5049967;28;20569;-46
2023/04/28 04:33:47;;;;;;;20.92;15.82;;;6.40;84.80;;;;;;5053426;28;20036;-43
2023/04/28 04:36:15;;;;;;;20.42;14.07;;;6.50;84.60;;;;;;5059198;28;20477;-43
2023/04/28 04:38:41;;;;;;;21.73;14.57;;;6.50;84.60;;;;;;5067162;28;20025;-44
2023/04/28 04:41:09;;;;;;;20.33;14.55;;;6.50;84.60;;;;;;5050097;28;20039;-45
2023/04/28 04:43:38;;;;;;;21.55;15.38;;;6.60;84.50;;;;;;5050145;28;20186;-44
2023/04/28 04:46:04;;;;;;;23.27;15.60;;;6.60;84.40;;;;;;5052831;28;20036;-44
2023/04/28 04:48:31;;;;;;;18.50;14.95;;;6.60;84.30;;;;;;5059694;28;20035;-43
2023/04/28 04:50:57;;;;;;;20.65;15.48;;;6.70;84.30;;;;;;5070223;28;20472;-44
2023/04/28 04:53:24;;;;;;;21.38;14.18;;;6.80;84.50;;;;;;5035499;28;20033;-44
2023/04/28 04:55:51;;;;;;;18.35;13.43;;;6.90;83.80;;;;;;5050252;28;20029;-43
2023/04/28 04:58:17;;;;;;;22.98;15.02;;;6.90;83.50;;;;;;5063931;28;20033;-44
2023/04/28 05:00:44;;;;;;;18.02;14.13;;;7.00;83.10;;;;;;5062829;28;20086;-45
2023/04/28 05:03:11;;;;;;;17.80;13.20;;;7.00;82.60;;;;;;5048228;28;20056;-49
2023/04/28 05:05:38;;;;;;;17.77;14.20;;;7.10;82.70;;;;;;5057115;28;20056;-45
2023/04/28 05:08:05;;;;;;;19.58;12.95;;;7.20;82.70;;;;;;5052175;28;20025;-46
2023/04/28 05:10:32;;;;;;;18.65;14.30;;;7.20;82.30;;;;;;5067984;28;20025;-45
2023/04/28 05:12:59;;;;;;;18.80;12.50;;;7.30;81.90;;;;;;5050781;28;20021;-46
2023/04/28 05:15:27;;;;;;;15.60;12.43;;;7.40;81.30;;;;;;5050334;28;20049;-44
2023/04/28 05:17:54;;;;;;;16.90;13.00;;;7.40;80.90;;;;;;5072586;28;20059;-46
2023/04/28 05:20:20;;;;;;;19.02;13.02;;;7.60;80.80;;;;;;5037785;28;20077;-46
2023/04/28 05:22:46;;;;;;;14.82;11.82;;;7.70;80.50;;;;;;5048645;28;20040;-46
2023/04/28 05:25:13;;;;;;;15.80;11.55;;;7.60;80.40;;;;;;5048039;28;20025;-44
2023/04/28 05:27:40;;;;;;;18.20;13.60;;;7.60;80.10;;;;;;5060792;28;20090;-45
2023/04/28 05:30:25;;;;;;;17.60;12.88;;;7.60;80.30;;;;;;5049880;28;20020;-47
2023/04/28 05:32:53;;;;;;;18.70;12.80;;;7.60;80.20;;;;;;5048887;28;20028;-48
2023/04/28 05:35:21;;;;;;;22.30;13.32;;;7.60;80.60;;;;;;5054791;28;20343;-44
2023/04/28 05:37:47;;;;;;;16.45;12.55;;;7.60;80.50;;;;;;5049632;28;20104;-46
2023/04/28 05:40:15;;;;;;;15.43;11.25;;;7.60;80.20;;;;;;5047505;28;20116;-46
2023/04/28 05:42:45;;;;;;;18.13;13.20;;;7.60;80.00;;;;;;5045841;28;20037;-45
2023/04/28 05:45:14;;;;;;;17.17;12.13;;;7.60;79.50;;;;;;5049009;28;20025;-45
2023/04/28 05:47:40;;;;;;;16.40;11.55;;;7.60;79.90;;;;;;5051892;28;20060;-45
2023/04/28 05:50:09;;;;;;;16.60;11.70;;;7.60;80.00;;;;;;5047276;28;20064;-44
2023/04/28 05:52:37;;;;;;;20.00;13.20;;;7.70;79.50;;;;;;5053192;28;20398;-45
2023/04/28 05:55:05;;;;;;;17.00;12.30;;;7.70;79.60;;;;;;5059152;28;20029;-52
2023/04/28 05:57:32;;;;;;;15.40;10.82;;;7.70;78.80;;;;;;5062707;28;20158;-45
2023/04/28 05:59:58;;;;;;;15.60;11.32;;;7.90;79.10;;;;;;5065936;28;20086;-45
2023/04/28 06:02:24;;;;;;;14.50;11.70;;;7.90;78.90;;;;;;5059087;28;20392;-44
2023/04/28 06:04:53;;;;;;;16.13;10.80;;;8.00;78.40;;;;;;5052892;28;20084;-44
2023/04/28 06:07:21;;;;;;;17.35;10.43;;;8.10;78.20;;;;;;5055156;28;20024;-48
2023/04/28 06:09:48;;;;;;;17.80;11.52;;;8.20;77.60;;;;;;5053699;28;20430;-46
2023/04/28 06:12:14;;;;;;;15.07;11.52;;;8.40;77.90;;;;;;5053004;28;20029;-44
2023/04/28 06:14:44;;;;;;;14.90;10.38;;;8.50;76.30;;;;;;5053209;28;20378;-49
2023/04/28 06:17:11;;;;;;;13.85;10.07;;;8.60;75.20;;;;;;5069332;28;20107;-49
2023/04/28 06:19:40;;;;;;;12.57;10.25;;;8.80;75.60;;;;;;5054961;28;20050;-47
2023/04/28 06:22:08;;;;;;;17.38;8.90;;;8.90;75.00;;;;;;5052435;28;20111;-45
2023/04/28 06:24:34;;;;;;;12.95;9.68;;;9.00;74.90;;;;;;5049693;28;20045;-45
2023/04/28 06:27:01;;;;;;;16.25;9.52;;;8.90;73.50;;;;;;5054788;28;20075;-47
2023/04/28 06:29:27;;;;;;;17.13;9.90;;;8.80;73.30;;;;;;5052371;28;20034;-46
2023/04/28 06:31:56;;;;;;;13.18;10.07;;;8.90;74.00;;;;;;5054372;28;20021;-47
2023/04/28 06:34:27;;;;;;;13.38;10.10;;;8.90;74.00;;;;;;5052689;28;20043;-45
2023/04/28 06:36:54;;;;;;;13.15;9.70;;;8.70;73.50;;;;;;5054806;28;20108;-48
2023/04/28 06:39:23;;;;;;;14.88;10.07;;;8.60;74.20;;;;;;5050136;28;20025;-45
2023/04/28 06:41:51;;;;;;;13.10;9.18;;;8.70;74.90;;;;;;5052577;28;20103;-45
2023/04/28 06:44:17;;;;;;;13.95;10.20;;;8.70;74.60;;;;;;5053990;28;20009;-47
2023/04/28 06:46:43;;;;;;;13.20;10.35;;;8.70;74.30;;;;;;5052039;28;20373;-47
2023/04/28 06:49:09;;;;;;;12.40;9.45;;;8.70;74.90;;;;;;5069945;28;20029;-45
2023/04/28 06:51:37;;;;;;;16.00;10.68;;;8.70;74.20;;;;;;5054037;28;20099;-45
2023/04/28 06:54:04;;;;;;;15.88;10.13;;;8.60;74.50;;;;;;5052842;28;20028;-45
2023/04/28 06:56:31;;;;;;;14.02;11.02;;;8.60;75.50;;;;;;5045783;28;20108;-45
2023/04/28 06:58:58;;;;;;;17.38;10.90;;;8.70;75.00;;;;;;5052045;28;20029;-45
2023/04/28 07:01:25;;;;;;;13.18;10.13;;;8.80;75.20;;;;;;5054194;28;20036;-46
2023/04/28 07:03:55;;;;;;;13.60;9.98;;;9.00;75.10;;;;;;5038733;28;20030;-45
2023/04/28 07:06:23;;;;;;;13.38;10.82;;;9.00;74.60;;;;;;5051371;28;20079;-50
2023/04/28 07:08:51;;;;;;;14.32;10.18;;;9.00;73.70;;;;;;5053290;28;20090;-50
2023/04/28 07:11:19;;;;;;;12.43;10.77;;;9.10;74.00;;;;;;5043078;28;20086;-47
2023/04/28 07:13:49;;;;;;;13.63;9.82;;;9.10;73.80;;;;;;5044000;28;20052;-46
2023/04/28 07:16:20;;;;;;;14.90;9.85;;;9.00;74.20;;;;;;5049019;28;20025;-45
2023/04/28 07:18:47;;;;;;;13.38;10.38;;;9.30;74.40;;;;;;5050182;28;20056;-44
2023/04/28 07:21:13;;;;;;;15.77;9.57;;;9.20;72.90;;;;;;5041151;28;20523;-45
2023/04/28 07:23:47;;;;;;;14.75;9.20;;;9.40;73.40;;;;;;5052061;28;20355;-46
2023/04/28 07:26:15;;;;;;;12.20;8.85;;;9.40;72.60;;;;;;5053465;28;20028;-47
2023/04/28 07:28:47;;;;;;;14.63;9.27;;;9.60;71.60;;;;;;5052541;28;20032;-49
2023/04/28 07:31:16;;;;;;;11.23;8.68;;;9.70;71.50;;;;;;5053804;28;20013;-46
2023/04/28 07:33:42;;;;;;;10.48;7.60;;;9.70;70.50;;;;;;5053528;28;20032;-46
2023/04/28 07:36:09;;;;;;;9.68;7.15;;;9.90;70.60;;;;;;5052460;28;20044;-45
2023/04/28 07:38:36;;;;;;;11.43;7.43;;;9.80;68.40;;;;;;5046816;28;20045;-49
2023/04/28 07:41:05;;;;;;;11.18;7.47;;;9.80;68.10;;;;;;5069355;28;20048;-46
2023/04/28 07:43:36;;;;;;;8.35;7.10;;;9.80;67.70;;;;;;5062439;28;20397;-48
2023/04/28 07:46:04;;;;;;;11.20;6.85;;;9.70;67.00;;;;;;5052713;28;20051;-45
2023/04/28 07:48:32;;;;;;;10.02;7.40;;;9.80;67.00;;;;;;5050218;28;20021;-45
2023/04/28 07:50:59;;;;;;;12.95;7.07;;;9.90;66.70;;;;;;5042407;28;20037;-45
2023/04/28 07:53:32;;;;;;;9.68;6.75;;;9.90;67.20;;;;;;5048557;28;20131;-47
2023/04/28 07:55:59;;;;;;;10.18;7.40;;;10.20;67.60;;;;;;5044312;28;20053;-45
2023/04/28 07:58:28;;;;;;;9.75;7.32;;;10.40;65.70;;;;;;5039339;28;20053;-49
2023/04/28 08:00:55;;;;;;;12.18;7.13;;;10.70;65.90;;;;;;5051762;28;20039;-45
2023/04/28 08:03:23;;;;;;;11.15;6.85;;;11.00;65.20;;;;;;5051694;28;20029;-44
2023/04/28 08:05:50;;;;;;;10.40;7.72;;;11.30;64.00;;;;;;5050569;28;20128;-46
2023/04/28 08:08:15;;;;;;;9.98;6.88;;;11.40;62.60;;;;;;5052870;28;20064;-45
2023/04/28 08:10:43;;;;;;;9.38;6.93;;;11.50;62.80;;;;;;5057706;28;20064;-45
2023/04/28 08:13:11;;;;;;;10.25;6.65;;;11.60;64.20;;;;;;5032961;28;20398;-45
2023/04/28 08:15:40;;;;;;;10.75;7.20;;;11.60;63.10;;;;;;5062578;28;20021;-47
2023/04/28 08:18:07;;;;;;;8.77;6.28;;;11.50;62.10;;;;;;5051000;28;20036;-47
2023/04/28 08:20:37;;;;;;;11.60;7.57;;;11.40;62.10;;;;;;5055810;28;20020;-45
2023/04/28 08:23:04;;;;;;;;;;;11.60;63.10;;;;;;5068117;28;20036;-46
2023/04/28 08:25:32;;;;;;;9.63;6.95;;;11.50;63.30;;;;;;5060643;28;19962;-46
2023/04/28 08:28:02;;;;;;;9.57;5.75;;;11.40;62.80;;;;;;5070830;28;20413;-47
2023/04/28 08:30:32;;;;;;;9.25;6.70;;;11.30;63.50;;;;;;5059282;28;20084;-47
2023/04/28 08:33:00;;;;;;;10.65;7.03;;;11.50;62.80;;;;;;5047254;28;20055;-49
2023/04/28 08:35:26;;;;;;;9.02;6.65;;;11.40;62.60;;;;;;5056299;28;20020;-45
2023/04/28 08:37:53;;;;;;;13.20;7.78;;;11.80;62.90;;;;;;5056156;28;20032;-46
2023/04/28 08:40:23;;;;;;;8.93;6.18;;;12.00;62.60;;;;;;5066063;28;20021;-48
2023/04/28 08:42:51;;;;;;;9.63;6.15;;;11.90;61.60;;;;;;5054723;28;20398;-47
2023/04/28 08:45:20;;;;;;;9.38;6.03;;;12.10;62.60;;;;;;5045181;28;20477;-46
2023/04/28 08:47:50;;;;;;;9.00;6.68;;;12.20;61.00;;;;;;5049355;28;20398;-48
2023/04/28 08:50:22;;;;;;;8.57;6.47;;;12.30;61.70;;;;;;5053484;28;20094;-45
2023/04/28 08:52:50;;;;;;;7.55;6.32;;;12.30;60.60;;;;;;5062572;28;20060;-47
2023/04/28 08:55:19;;;;;;;12.13;6.43;;;12.50;61.70;;;;;;5059031;28;20047;-45
2023/04/28 08:58:03;;;;;;;8.90;5.85;;;12.80;60.00;;;;;;5048185;28;20064;-45
2023/04/28 09:00:31;;;;;;;10.63;6.03;;;13.00;60.40;;;;;;5043893;28;20025;-45
2023/04/28 09:02:58;;;;;;;10.98;6.28;;;12.90;59.70;;;;;;5051632;28;20434;-46
2023/04/28 09:05:27;;;;;;;10.27;7.13;;;13.00;60.30;;;;;;5063322;28;20049;-45
2023/04/28 09:07:55;;;;;;;8.13;6.60;;;13.00;60.60;;;;;;5059312;28;20021;-45
2023/04/28 09:10:39;;;;;;;10.35;7.55;;;13.40;59.10;;;;;;5054585;28;20148;-47
2023/04/28 09:13:23;;;;;;;10.02;5.53;;;13.40;59.10;;;;;;5062460;28;20056;-45
2023/04/28 09:15:49;;;;;;;8.93;7.07;;;13.70;58.70;;;;;;5037788;28;20594;-51
2023/04/28 09:18:20;;;;;;;8.73;6.00;;;13.90;60.80;;;;;;5039236;28;20060;-47
2023/04/28 09:20:47;;;;;;;8.10;5.68;;;13.80;57.80;;;;;;5049957;28;20056;-47
2023/04/28 09:23:21;;;;;;;6.82;5.43;;;13.70;56.70;;;;;;5060870;28;20043;-49
2023/04/28 09:26:06;;;;;;;8.63;5.60;;;13.60;57.90;;;;;;5051537;28;20090;-49
2023/04/28 09:28:37;;;;;;;7.20;5.65;;;13.50;58.10;;;;;;5050209;28;20463;-47
2023/04/28 09:31:05;;;;;;;7.55;5.85;;;13.40;58.20;;;;;;5062767;28;20056;-48
2023/04/28 09:33:32;;;;;;;8.82;5.85;;;13.20;57.40;;;;;;5053504;28;20104;-45
2023/04/28 09:35:58;;;;;;;9.90;6.22;;;12.90;57.70;;;;;;5065614;28;20150;-45
2023/04/28 09:38:26;;;;;;;7.28;5.18;;;12.80;57.90;;;;;;5053678;28;20075;-46
2023/04/28 09:41:00;;;;;;;9.90;5.97;;;12.60;58.40;;;;;;5057202;28;20034;-47
2023/04/28 09:43:35;;;;;;;6.18;5.43;;;12.50;57.90;;;;;;5058451;28;20040;-49
2023/04/28 09:46:04;;;;;;;10.13;6.30;;;12.50;59.10;;;;;;5045664;28;20033;-48
2023/04/28 09:48:38;;;;;;;8.98;5.88;;;12.40;59.50;;;;;;5074249;28;20032;-47
2023/04/28 09:51:06;;;;;;;9.07;6.35;;;12.40;59.50;;;;;;5044707;28;20039;-46
2023/04/28 09:53:34;;;;;;;7.25;5.95;;;12.40;59.50;;;;;;5049554;28;20033;-46
2023/04/28 09:56:03;;;;;;;8.52;5.63;;;12.20;60.30;;;;;;5051669;28;20029;-46
2023/04/28 09:58:36;;;;;;;11.38;7.65;;;12.30;60.20;;;;;;5065088;28;20043;-45
2023/04/28 10:01:07;;;;;;;9.65;5.47;;;12.20;60.30;;;;;;5050906;28;20021;-45
2023/04/28 10:03:39;;;;;;;10.02;6.30;;;12.20;60.40;;;;;;5056673;28;20044;-47
2023/04/28 10:06:07;;;;;;;8.38;5.90;;;12.10;60.10;;;;;;5045577;28;20069;-47
2023/04/28 10:08:34;;;;;;;11.65;7.13;;;12.10;60.40;;;;;;5054092;28;20484;-46
2023/04/28 10:11:01;;;;;;;8.52;6.18;;;12.10;60.80;;;;;;5054343;28;20041;-49
2023/04/28 10:13:26;;;;;;;12.20;6.25;;;12.10;61.00;;;;;;5048850;28;20025;-47
2023/04/28 10:15:54;;;;;;;8.95;5.75;;;12.00;60.60;;;;;;5051303;28;20035;-49
2023/04/28 10:18:23;;;;;;;9.60;6.53;;;11.90;60.90;;;;;;5050937;28;20041;-49
2023/04/28 10:20:59;;;;;;;8.70;5.80;;;11.90;61.40;;;;;;5035696;28;20610;-47
2023/04/28 10:24:02;;;;;;;9.90;6.75;;;11.80;61.50;;;;;;5047389;28;20087;-46
2023/04/28 10:26:59;;;;;;;11.13;6.78;;;11.70;62.00;;;;;;5059323;28;20031;-48
2023/04/28 10:29:32;;;;;;;9.25;6.15;;;11.90;64.10;;;;;;5052493;28;20025;-51
2023/04/28 10:32:22;;;;;;;7.70;6.13;;;11.90;65.00;;;;;;5050857;28;20017;-50
2023/04/28 10:34:48;;;;;;;7.72;5.63;;;11.90;62.80;;;;;;5067424;28;20036;-47
2023/04/28 10:37:17;;;;;;;8.93;5.90;;;11.90;63.90;;;;;;5053302;28;20036;-46
2023/04/28 10:40:22;;;;;;;8.27;6.07;;;11.90;63.40;;;;;;5052274;28;20013;-47
2023/04/28 10:42:55;;;;;;;11.13;5.75;;;11.80;63.10;;;;;;5051597;28;20025;-46
2023/04/28 10:45:59;;;;;;;9.77;6.40;;;11.70;63.10;;;;;;5052481;28;20033;-49
2023/04/28 10:48:32;;;;;;;10.10;6.00;;;11.60;63.50;;;;;;5049325;28;20025;-46
2023/04/28 10:53:51;;;;;;;15.52;6.72;;;11.60;65.40;;;;;;5051024;28;20438;-46
2023/04/28 10:56:24;;;;;;;8.27;6.53;;;11.60;64.90;;;;;;5046045;28;20025;-46
2023/04/28 10:58:57;;;;;;;10.68;6.63;;;11.80;65.10;;;;;;5050096;28;20032;-49
2023/04/28 11:01:34;;;;;;;9.27;6.43;;;11.80;64.90;;;;;;5060360;28;20035;-50
2023/04/28 11:04:16;;;;;;;7.95;5.95;;;11.90;62.70;;;;;;5036815;28;20033;-46
2023/04/28 11:06:49;;;;;;;13.57;7.65;;;11.90;63.40;;;;;;5069424;28;20037;-46
2023/04/28 11:09:30;;;;;;;12.13;7.35;;;11.90;62.50;;;;;;5058075;28;20116;-47
2023/04/28 11:12:14;;;;;;;11.82;6.50;;;11.90;63.10;;;;;;5052248;28;20180;-50
2023/04/28 11:14:42;;;;;;;11.75;6.82;;;11.90;63.90;;;;;;5060248;28;20362;-46
2023/04/28 11:17:18;;;;;;;10.02;6.05;;;11.90;64.00;;;;;;5048711;28;20064;-51
2023/04/28 11:19:55;;;;;;;8.55;5.95;;;11.90;64.30;;;;;;5039866;28;20499;-46
2023/04/28 11:22:24;;;;;;;14.20;7.35;;;11.90;64.80;;;;;;5052765;28;20025;-46
2023/04/28 11:25:02;;;;;;;10.27;6.65;;;12.00;64.20;;;;;;5047135;28;20033;-46
2023/04/28 11:27:32;;;;;;;11.95;7.32;;;12.00;65.00;;;;;;5054324;28;20113;-48
2023/04/28 11:30:03;;;;;;;11.43;6.32;;;12.00;66.70;;;;;;5058743;28;20033;-45
2023/04/28 11:32:35;;;;;;;8.55;6.30;;;11.90;65.40;;;;;;5050404;28;20025;-46
2023/04/28 11:35:08;;;;;;;11.73;7.45;;;12.00;64.80;;;;;;5049533;28;20025;-45
2023/04/28 11:37:36;;;;;;;10.13;7.05;;;11.90;65.10;;;;;;5050293;28;20882;-46
2023/04/28 11:40:15;;;;;;;15.32;7.88;;;11.90;66.10;;;;;;5051613;28;20058;-50
2023/04/28 11:42:48;;;;;;;10.13;7.75;;;11.90;67.00;;;;;;5050104;28;20374;-45
2023/04/28 11:45:16;;;;;;;8.73;7.47;;;11.80;67.20;;;;;;5051400;28;20029;-44
2023/04/28 11:47:44;;;;;;;9.90;6.95;;;11.70;67.30;;;;;;5053212;28;20071;-45
2023/04/28 11:50:13;;;;;;;10.98;6.95;;;11.50;67.90;;;;;;5069310;28;20082;-44
2023/04/28 11:52:50;;;;;;;13.30;9.13;;;11.50;69.10;;;;;;5064710;28;20079;-44
2023/04/28 11:55:21;;;;;;;11.50;7.65;;;11.50;69.10;;;;;;5043581;28;20033;-45
2023/04/28 11:57:48;;;;;;;8.38;6.90;;;11.50;69.60;;;;;;5063345;28;20029;-46
2023/04/28 12:00:20;;;;;;;10.57;7.35;;;11.50;69.20;;;;;;5065359;28;20410;-45
2023/04/28 12:02:48;;;;;;;11.30;7.63;;;11.60;69.40;;;;;;5056738;28;20555;-47
2023/04/28 12:05:14;;;;;;;10.50;7.53;;;11.70;69.00;;;;;;5071054;28;20394;-45
2023/04/28 12:07:45;;;;;;;8.75;7.65;;;11.80;68.10;;;;;;5061148;28;20021;-48
2023/04/28 12:10:16;;;;;;;11.15;7.68;;;11.90;67.90;;;;;;5070861;28;20052;-45
2023/04/28 12:12:44;;;;;;;11.30;7.72;;;12.00;67.50;;;;;;5069547;28;20028;-46
2023/04/28 12:15:12;;;;;;;12.23;8.02;;;12.10;68.50;;;;;;5064046;28;20091;-44
2023/04/28 12:17:45;;;;;;;11.98;7.15;;;12.10;67.70;;;;;;5066638;28;20062;-45
2023/04/28 12:20:39;;;;;;;9.95;7.88;;;12.20;68.70;;;;;;5049090;28;20044;-49
2023/04/28 12:23:07;;;;;;;8.40;7.13;;;12.30;67.50;;;;;;5060189;28;20458;-45
2023/04/28 12:25:42;;;;;;;10.07;7.18;;;12.40;68.00;;;;;;5063191;28;20044;-46
2023/04/28 12:28:10;;;;;;;8.82;6.97;;;12.50;68.10;;;;;;5049335;28;20117;-45
2023/04/28 12:30:40;;;;;;;10.10;7.32;;;12.60;69.10;;;;;;5058561;28;20036;-45
2023/04/28 12:33:28;;;;;;;9.25;7.70;;;12.70;70.30;;;;;;5071635;28;20058;-46
2023/04/28 12:35:56;;;;;;;13.85;7.72;;;12.80;70.30;;;;;;5048033;28;20463;-46
2023/04/28 12:38:23;;;;;;;12.38;8.05;;;12.70;68.00;;;;;;5044413;28;20451;-46
2023/04/28 12:40:51;;;;;;;12.52;8.65;;;12.70;68.80;;;;;;5060567;28;20443;-46
2023/04/28 12:43:22;;;;;;;10.43;7.72;;;12.60;68.40;;;;;;5031657;28;20029;-45
2023/04/28 12:45:54;;;;;;;10.65;9.10;;;12.70;69.00;;;;;;5064718;28;20040;-47
2023/04/28 12:48:22;;;;;;;12.43;7.35;;;12.70;69.20;;;;;;5064766;28;20028;-46
2023/04/28 12:50:50;;;;;;;13.45;7.97;;;12.60;69.30;;;;;;5060837;28;20078;-46
2023/04/28 12:53:16;;;;;;;15.43;9.85;;;12.60;69.80;;;;;;5066867;28;20094;-45
2023/04/28 12:55:43;;;;;;;14.48;9.18;;;12.60;69.40;;;;;;5040216;28;20037;-46